Jepson Prairie Reserve, California Weather observations

Data are for 10 minute period ending at time listed.
 Day   Time   Solar   Ave.   Ave.  Ave.  Vector  Max.   Baro.   Total    
  of    of     Rad.   Air    Rel.  Wind   Wind   Wind  Press.  Precip.   
Year   Day            Temp.  Hum.  Speed  Dir.   Gust                    
2017   (PST)  Kw/m2    F      %     mph   deg.    mph    mb.     in.     
-------------------------------------------------------------------------
 145    3:10   0.00   55.5    86   25.4   220    33.6   1002.4    0.00 
 145    3:20   0.00   55.5    85   27.1   218    34.9   1002.4    0.00 
 145    3:30   0.00   55.5    85   24.1   220    33.4   1002.7    0.00 
 145    3:40   0.00   55.4    85   22.3   214    29.6   1002.7    0.00 
 145    3:50   0.00   55.5    86   21.2   218    28.4   1002.7    0.00 
 145    4:00   0.00   55.5    85   21.3   224    27.7   1002.7    0.00 
 145    4:10   0.00   55.6    84   20.1   220    27.3   1003.1    0.00 
 145    4:20   0.00   55.6    83   23.4   219    31.2   1003.1    0.00 
 145    4:30   0.00   55.6    83   22.3   221    32.7   1003.1    0.00 
 145    4:40   0.00   55.6    83   23.5   225    32.0   1003.4    0.00 
 145    4:50   0.00   55.6    84   23.0   224    30.2   1003.7    0.00 
 145    5:00   0.00   55.6    84   22.3   227    30.5   1003.7    0.00 
 145    5:10   0.01   55.7    84   21.5   229    28.9   1003.7    0.00 
 145    5:20   0.03   55.6    83   22.0   229    29.6   1003.7    0.00 
 145    5:30   0.03   56.0    82   22.8   228    30.3   1003.7    0.00 
 145    5:40   0.05   56.1    81   21.5   225    29.4   1004.1    0.00 
 145    5:50   0.06   56.2    81   21.2   225    29.4   1004.1    0.00 
 145    6:00   0.06   56.4    80   19.7   228    25.7   1004.1    0.00 
 145    6:10   0.07   56.5    81   16.7   230    22.2   1004.4    0.00 
 145    6:20   0.08   56.7    81   18.2   226    24.5   1004.4    0.00 
 145    6:30   0.13   57.2    79   20.9   226    27.2   1004.4    0.00 
 145    6:40   0.15   57.3    78   22.1   222    28.8   1004.4    0.00 
 145    6:50   0.17   57.5    77   22.3   227    28.4   1004.7    0.00 
 145    7:00   0.17   57.6    76   22.2   232    28.9   1004.7    0.00 
 145    7:10   0.30   58.2    75   20.8   233    26.5   1004.7    0.00 
 145    7:20   0.39   59.1    73   21.7   233    26.5   1004.7    0.00 
 145    7:30   0.46   59.8    71   21.5   232    26.2   1005.1    0.00 
 145    7:40   0.48   60.1    70   21.0   227    26.1   1005.1    0.00 
 145    7:50   0.51   60.6    69   21.6   226    27.2   1005.1    0.00 
 145    8:00   0.60   61.2    68   20.5   226    27.3   1005.4    0.00 
 145    8:10   0.68   62.2    66   20.3   231    26.8   1005.4    0.00 
 145    8:20   0.76   62.4    65   21.2   226    28.3   1005.8    0.00 
 145    8:30   0.62   62.5    65   19.5   215    25.8   1005.8    0.00 
 145    8:40   0.69   62.7    63   19.8   220    25.1   1005.8    0.00 
 145    8:50   0.74   63.5    62   20.6   224    26.4   1005.8    0.00 
 145    9:00   0.72   63.8    62   19.0   228    25.5   1005.8    0.00 
 145    9:10   0.82   64.5    60   18.8   224    24.8   1005.8    0.00 
 145    9:20   0.80   64.9    59   17.4   215    22.3   1005.8    0.00 
 145    9:30   0.78   64.9    59   17.8   228    24.3   1005.8    0.00 
 145    9:40   0.73   65.2    59   16.9   225    23.2   1005.8    0.00 
 145    9:50   0.76   65.6    59   16.0   225    24.2   1006.1    0.00 
 145   10:00   0.72   65.5    59   16.6   211    24.7   1006.1    0.00 
 145   10:10   0.51   65.4    59   15.8   226    22.9   1006.1    0.00 
 145   10:20   0.56   64.6    60   15.8   221    20.8   1006.1    0.00 
 145   10:30   0.65   66.2    58   14.3   224    21.5   1006.1    0.00 
 145   10:40   0.40   64.5    61   15.8   230    22.2   1006.4    0.00 
 145   10:50   0.42   64.6    61   14.9   225    20.4   1006.4    0.00 
 145   11:00   0.65   65.4    60   16.0   226    22.9   1006.4    0.00 
 145   11:10   0.92   67.0    58   14.6   227    23.3   1006.4    0.00 
 145   11:20   0.95   67.6    57   15.2   236    21.9   1006.4    0.00 
 145   11:30   0.90   68.0    56   14.7   229    22.4   1006.1    0.00 
 145   11:40   0.83   67.2    57   15.9   219    22.1   1006.1    0.00 
 145   11:50   0.94   67.9    56   16.6   225    24.8   1006.1    0.00 
 145   12:00   0.89   68.5    56   15.4   234    22.6   1006.1    0.00 
 145   12:10   0.96   68.2    56   16.9   224    23.4   1006.1    0.00 
 145   12:20   0.95   69.3    55   16.5   227    23.0   1006.1    0.00 
 145   12:30   0.89   69.1    55   17.2   229    23.9   1006.1    0.00 
 145   12:40   0.90   68.6    56   17.2   229    23.6   1006.1    0.00 
 145   12:50   0.93   69.6    54   18.0   221    24.4   1006.1    0.00 
 145   13:00   0.91   69.3    54   19.8   224    27.0   1006.1    0.00 
 145   13:10   0.90   69.3    54   19.5   223    26.7   1006.1    0.00 
 145   13:20   0.89   68.9    55   21.0   226    28.6   1006.1    0.00 
 145   13:30   0.88   69.3    54   20.1   228    26.7   1005.8    0.00 
 145   13:40   0.87   69.7    54   20.0   229    26.7   1005.8    0.00 
 145   13:50   0.85   69.2    54   20.8   229    27.0   1005.8    0.00 
 145   14:00   0.84   69.1    55   20.9   231    27.8   1005.8    0.00 
 145   14:10   0.82   69.6    55   19.8   222    26.8   1005.8    0.00 
 145   14:20   0.80   69.6    55   21.1   232    31.0   1005.8    0.00 
 145   14:30   0.78   69.0    56   20.8   232    27.4   1005.8    0.00 
 145   14:40   0.76   68.7    56   21.1   230    27.2   1005.8    0.00 
 145   14:50   0.74   68.1    56   22.0   233    29.2   1005.8    0.00 
 145   15:00   0.71   67.9    57   21.9   233    30.2   1005.8    0.00 
 145   15:10   0.69   68.5    56   19.7   236    27.5   1005.8    0.00 
 145   15:20   0.66   68.1    56   20.6   230    30.8   1005.8    0.00 
 145   15:30   0.63   68.1    54   21.1   230    28.5   1005.8    0.00 
 145   15:40   0.61   67.8    55   20.3   231    28.1   1005.8    0.00 
 145   15:50   0.58   67.4    56   21.5   234    27.0   1005.8    0.00 
 145   16:00   0.55   67.3    55   22.3   231    27.5   1005.8    0.00 
 145   16:10   0.52   67.2    56   21.8   229    28.3   1005.4    0.00 
 145   16:20   0.49   66.8    56   22.5   232    28.3   1005.4    0.00 
 145   16:30   0.46   66.6    57   22.6   231    28.0   1005.4    0.00 
 145   16:40   0.42   66.5    57   20.5   233    30.3   1005.4    0.00 
 145   16:50   0.40   65.6    58   22.3   228    28.2   1005.4    0.00 
 145   17:00   0.34   65.2    59   22.1   230    28.9   1005.4    0.00 
 145   17:10   0.33   64.7    60   23.1   234    29.1   1005.4    0.00 
 145   17:20   0.30   64.1    61   23.5   233    30.8   1005.4    0.00 
 145   17:30   0.27   63.6    62   23.0   233    28.3   1005.4    0.00 
 145   17:40   0.23   63.2    63   21.7   230    28.9   1005.4    0.00 
 145   17:50   0.20   62.6    64   23.7   231    29.9   1005.4    0.00 
 145   18:00   0.17   62.1    64   22.1   227    30.8   1005.4    0.00 
 145   18:10   0.14   61.7    66   21.5   227    28.6   1005.4    0.00 
 145   18:20   0.12   61.1    67   19.5   227    27.8   1005.8    0.00 
 145   18:30   0.09   60.7    67   19.7   226    25.9   1005.8    0.00 
 145   18:40   0.07   60.3    67   20.2   220    27.9   1005.8    0.00 
 145   18:50   0.05   59.7    68   21.4   212    28.9   1005.8    0.00 
 145   19:00   0.03   59.3    71   19.9   214    25.5   1005.8    0.00 
 145   19:10   0.01   58.6    73   16.3   209    23.2   1005.8    0.00 
 145   19:20   0.01   58.0    74   16.8   208    22.1   1005.8    0.00 
 145   19:30   0.00   57.5    75   16.0   209    21.3   1005.8    0.00 
 145   19:40   0.00   57.2    76   16.9   208    22.1   1005.8    0.00 
 145   19:50   0.00   56.9    76   16.7   206    21.7   1005.8    0.00 
 145   20:00   0.00   56.7    75   15.5   206    19.9   1006.1    0.00 
 145   20:10   0.00   56.5    76   14.1   207    19.2   1006.1    0.00 
 145   20:20   0.00   56.2    76   13.7   206    18.1   1006.4    0.00 
 145   20:30   0.00   56.0    76   13.9   210    17.5   1006.4    0.00 
 145   20:40   0.00   55.7    78   13.8   214    18.9   1006.4    0.00 
 145   20:50   0.00   55.8    78   15.7   218    19.6   1006.8    0.00 
 145   21:00   0.00   55.8    78   17.0   219    21.8   1006.8    0.00 
 145   21:10   0.00   55.8    79   17.8   221    22.1   1006.8    0.00 
 145   21:20   0.00   55.7    79   17.6   221    23.1   1006.8    0.00 
 145   21:30   0.00   55.4    80   16.8   219    23.1   1006.8    0.00 
 145   21:40   0.00   55.3    80   18.2   219    23.0   1007.1    0.00 
 145   21:50   0.00   55.3    80   19.1   221    26.1   1007.1    0.00 
 145   22:00   0.00   55.0    80   18.8   220    25.1   1007.1    0.00 
 145   22:10   0.00   54.8    80   19.1   224    23.8   1007.1    0.00 
 145   22:20   0.00   54.8    81   19.6   224    25.1   1007.1    0.00 
 145   22:30   0.00   54.7    81   18.8   223    23.7   1007.1    0.00 
 145   22:40   0.00   54.6    81   18.8   224    26.5   1007.5    0.00 
 145   22:50   0.00   54.6    81   18.9   226    25.3   1007.5    0.00 
 145   23:00   0.00   54.5    81   19.5   229    25.6   1007.5    0.00 
 145   23:10   0.00   54.5    81   18.9   231    26.4   1007.5    0.00 
 145   23:20   0.00   54.3    81   20.3   231    25.6   1007.5    0.00 
 145   23:30   0.00   54.3    81   22.5   231    29.1   1007.5    0.00 
 145   23:40   0.00   54.3    81   21.6   229    27.4   1007.5    0.00 
 145   23:50   0.00   54.3    80   20.8   227    25.7   1007.8    0.00 
 146    0:00   0.00   54.1    81   19.3   229    25.4   1007.8    0.00 
 146    0:10   0.00   54.1    81   19.2   231    25.6   1007.8    0.00 
 146    0:20   0.00   54.2    80   18.4   227    24.1   1007.8    0.00 
 146    0:30   0.00   54.1    81   16.9   227    24.2   1008.1    0.00 
 146    0:40   0.00   54.1    80   17.0   229    22.8   1008.1    0.00 
 146    0:50   0.00   54.0    81   16.2   229    22.0   1008.1    0.00 
 146    1:00   0.00   54.0    81   15.3   231    20.0   1008.1    0.00 
 146    1:10   0.00   54.0    81   15.5   231    20.2   1008.1    0.00 
 146    1:20   0.00   54.0    81   16.2   228    21.1   1008.1    0.00 
 146    1:30   0.00   54.1    80   16.0   228    20.5   1008.1    0.00 
 146    1:40   0.00   54.0    81   14.5   231    19.2   1008.5    0.00 
 146    1:50   0.00   54.0    81   13.9   224    17.8   1008.5    0.00 
 146    2:00   0.00   53.9    81   13.5   228    17.2   1008.5    0.00 
 146    2:10   0.00   54.0    81   13.5   230    17.7   1008.5    0.00 
 146    2:20   0.00   53.9    81   11.8   227    16.0   1008.5    0.00 
 146    2:30   0.00   53.7    82   11.9   226    15.5   1008.5    0.00 
 146    2:40   0.00   53.6    82   13.1   226    17.0   1008.5    0.00 
 146    2:50   0.00   53.8    82   13.8   228    17.2   1008.5    0.00 
 146    3:00   0.00   53.8    82   13.3   230    16.9   1008.5    0.00 

Return to Jepson Prairie Reserve graphs page.


Western Regional Climate Center,wrcc@dri.edu